createdAt,value
2023-11-30T00:01:29.678Z,88.24
2023-11-30T00:03:57.676Z,88.44
2023-11-30T00:06:26.186Z,88.31
2023-11-30T00:08:54.740Z,88.44
2023-11-30T00:11:22.562Z,88.64
2023-11-30T00:13:50.371Z,88.76
2023-11-30T00:16:18.198Z,88.42
2023-11-30T00:18:45.937Z,88.37
2023-11-30T00:21:13.937Z,87.82
2023-11-30T00:23:41.623Z,87.38
2023-11-30T00:26:09.472Z,87.40
2023-11-30T00:28:37.383Z,87.30
2023-11-30T00:31:05.690Z,87.06
2023-11-30T00:33:33.466Z,87.39
2023-11-30T00:36:01.446Z,87.16
2023-11-30T00:38:29.518Z,87.44
2023-11-30T00:40:57.247Z,87.21
2023-11-30T00:43:24.999Z,87.44
2023-11-30T00:46:03.229Z,87.44
2023-11-30T00:48:38.242Z,87.95
2023-11-30T00:51:10.050Z,88.20
2023-11-30T00:53:39.237Z,88.65
2023-11-30T00:56:07.793Z,88.59
2023-11-30T00:58:35.820Z,88.52
2023-11-30T01:01:03.737Z,88.84
2023-11-30T01:03:31.671Z,88.58
2023-11-30T01:05:59.590Z,88.56
2023-11-30T01:08:27.290Z,88.22
2023-11-30T01:10:55.045Z,87.85
2023-11-30T01:13:22.805Z,87.48
2023-11-30T01:15:50.892Z,87.34
2023-11-30T01:18:19.130Z,87.33
2023-11-30T01:20:46.995Z,87.04
2023-11-30T01:23:14.819Z,86.99
2023-11-30T01:25:42.624Z,86.67
2023-11-30T01:28:10.354Z,87.07
2023-11-30T01:30:38.382Z,87.01
2023-11-30T01:33:06.221Z,86.79
2023-11-30T01:35:33.967Z,87.04
2023-11-30T01:38:01.701Z,87.33
2023-11-30T01:40:29.493Z,87.10
2023-11-30T01:42:57.299Z,87.36
2023-11-30T01:45:26.297Z,87.40
2023-11-30T01:47:54.178Z,87.71
2023-11-30T01:50:23.576Z,87.79
2023-11-30T01:52:51.534Z,88.21
2023-11-30T01:55:19.695Z,88.18
2023-11-30T01:57:47.685Z,88.14
2023-11-30T02:00:16.930Z,87.56
2023-11-30T02:02:45.441Z,87.49
2023-11-30T02:05:13.385Z,87.36
2023-11-30T02:07:41.150Z,87.37
2023-11-30T02:10:09.494Z,87.37
2023-11-30T02:12:37.495Z,87.38
2023-11-30T02:15:05.849Z,87.71
2023-11-30T02:17:33.690Z,86.99
2023-11-30T02:20:01.563Z,87.57
2023-11-30T02:22:29.459Z,87.49
2023-11-30T02:24:57.152Z,88.25
2023-11-30T02:27:24.970Z,88.54
2023-11-30T02:29:53.029Z,88.66
2023-11-30T02:32:21.730Z,88.58
2023-11-30T02:34:49.441Z,88.18
2023-11-30T02:37:17.236Z,88.13
2023-11-30T02:39:45.015Z,88.22
2023-11-30T02:42:13.353Z,87.53
2023-11-30T02:44:41.098Z,87.83
2023-11-30T02:47:08.837Z,88.05
2023-11-30T02:49:36.828Z,87.96
2023-11-30T02:52:05.448Z,87.58
2023-11-30T02:54:33.335Z,87.69
2023-11-30T02:57:02.384Z,87.68
2023-11-30T02:59:32.016Z,87.72
2023-11-30T03:02:00.004Z,88.53
2023-11-30T03:04:27.927Z,88.57
2023-11-30T03:06:55.749Z,88.49
2023-11-30T03:09:23.523Z,88.22
2023-11-30T03:11:52.395Z,87.94
2023-11-30T03:14:20.989Z,87.34
2023-11-30T03:16:48.789Z,87.08
2023-11-30T03:19:17.599Z,87.42
2023-11-30T03:21:45.653Z,87.50
2023-11-30T03:24:14.232Z,87.49
2023-11-30T03:26:42.822Z,87.44
2023-11-30T03:29:11.064Z,87.18
2023-11-30T03:31:40.816Z,87.42
2023-11-30T03:34:09.110Z,87.15
2023-11-30T03:36:37.005Z,87.48
2023-11-30T03:39:05.654Z,87.49
2023-11-30T03:41:33.433Z,87.79
2023-11-30T03:44:02.777Z,88.08
2023-11-30T03:46:31.097Z,88.23
2023-11-30T03:48:59.079Z,87.82
2023-11-30T03:51:26.858Z,87.78
2023-11-30T03:53:54.715Z,87.86
2023-11-30T03:56:22.608Z,87.48
2023-11-30T03:58:52.387Z,87.79
2023-11-30T04:01:24.228Z,88.78
2023-11-30T04:03:52.121Z,88.40
2023-11-30T04:06:21.455Z,87.93
2023-11-30T04:08:53.254Z,87.62
2023-11-30T04:11:21.494Z,87.97
2023-11-30T04:13:49.361Z,88.28
2023-11-30T04:16:18.238Z,88.56
2023-11-30T04:18:46.155Z,89.23
2023-11-30T04:21:14.761Z,89.07
2023-11-30T04:23:42.562Z,88.76
2023-11-30T04:26:11.092Z,88.55
2023-11-30T04:28:39.026Z,88.49
2023-11-30T04:31:08.401Z,87.90
2023-11-30T04:33:36.219Z,88.07
2023-11-30T04:36:04.686Z,88.07
2023-11-30T04:38:32.719Z,88.20
2023-11-30T04:41:00.755Z,87.96
2023-11-30T04:43:28.566Z,88.84
2023-11-30T04:45:56.383Z,88.71
2023-11-30T04:48:24.139Z,88.35
2023-11-30T04:50:52.512Z,88.34
2023-11-30T04:53:20.400Z,88.87
2023-11-30T04:55:48.157Z,89.12
2023-11-30T04:58:15.955Z,88.92
2023-11-30T05:00:43.704Z,88.91
2023-11-30T05:03:13.098Z,88.76
2023-11-30T05:05:41.216Z,88.44
2023-11-30T05:08:09.354Z,87.95
2023-11-30T05:10:37.430Z,88.04
2023-11-30T05:13:05.162Z,87.87
2023-11-30T05:15:32.931Z,87.80
2023-11-30T05:18:00.753Z,88.66
2023-11-30T05:20:29.766Z,88.65
2023-11-30T05:22:57.469Z,88.26
2023-11-30T05:25:25.522Z,88.21
2023-11-30T05:27:53.294Z,88.27
2023-11-30T05:30:21.621Z,88.85
2023-11-30T05:32:50.052Z,89.30
2023-11-30T05:35:18.021Z,89.27
2023-11-30T05:37:47.236Z,88.97
2023-11-30T05:40:17.244Z,88.86
2023-11-30T05:42:44.958Z,88.41
2023-11-30T05:45:12.801Z,88.15
2023-11-30T05:47:40.683Z,88.43
2023-11-30T05:50:09.030Z,88.39
2023-11-30T05:52:37.086Z,88.30
2023-11-30T05:55:09.001Z,88.49
2023-11-30T05:57:38.319Z,88.82
2023-11-30T06:00:09.677Z,89.05
2023-11-30T06:02:40.765Z,89.35
2023-11-30T06:05:08.982Z,89.56
2023-11-30T06:07:38.680Z,89.52
2023-11-30T06:10:11.140Z,89.13
2023-11-30T06:12:40.616Z,88.48
2023-11-30T06:15:10.839Z,88.43
2023-11-30T06:17:38.998Z,88.51
2023-11-30T06:20:11.762Z,88.33
2023-11-30T06:22:41.242Z,88.53
2023-11-30T06:25:10.247Z,88.68
2023-11-30T06:27:38.358Z,88.92
2023-11-30T06:30:07.115Z,89.04
2023-11-30T06:32:35.103Z,89.02
2023-11-30T06:35:03.535Z,89.29
2023-11-30T06:37:31.439Z,89.09
2023-11-30T06:39:59.278Z,88.93
2023-11-30T06:42:27.059Z,88.61
2023-11-30T06:44:54.966Z,88.48
2023-11-30T06:47:22.714Z,88.35
2023-11-30T06:49:51.329Z,88.20
2023-11-30T06:52:19.419Z,88.27
2023-11-30T06:54:47.221Z,88.24
2023-11-30T06:57:15.229Z,88.29
2023-11-30T06:59:44.470Z,88.39
2023-11-30T07:02:12.470Z,88.72
2023-11-30T07:04:40.563Z,88.93
2023-11-30T07:07:10.090Z,88.93
2023-11-30T07:09:40.808Z,89.17
2023-11-30T07:12:09.342Z,88.95
2023-11-30T07:14:50.471Z,88.84
2023-11-30T07:17:24.587Z,88.46
2023-11-30T07:19:53.276Z,88.36
2023-11-30T07:22:23.398Z,88.17
2023-11-30T07:24:52.079Z,88.19
2023-11-30T07:27:20.504Z,88.15
2023-11-30T07:29:48.541Z,88.40
2023-11-30T07:32:16.929Z,88.47
2023-11-30T07:34:45.799Z,88.53
2023-11-30T07:37:17.113Z,88.46
2023-11-30T07:39:45.466Z,88.63
2023-11-30T07:42:25.881Z,88.54
2023-11-30T07:45:03.220Z,88.63
2023-11-30T07:47:31.978Z,88.66
2023-11-30T07:50:00.546Z,88.39
2023-11-30T07:52:28.481Z,88.60
2023-11-30T07:54:56.257Z,88.32
2023-11-30T07:57:25.029Z,88.43
2023-11-30T07:59:52.941Z,88.55
2023-11-30T08:02:20.723Z,88.55
2023-11-30T08:04:48.540Z,88.96
2023-11-30T08:07:16.354Z,88.99
2023-11-30T08:09:44.122Z,89.05
2023-11-30T08:12:12.007Z,89.18
2023-11-30T08:14:40.053Z,88.81
2023-11-30T08:17:07.977Z,88.67
2023-11-30T08:19:35.822Z,88.30
2023-11-30T08:22:03.666Z,88.11
2023-11-30T08:24:31.538Z,87.88
2023-11-30T08:27:00.748Z,87.79
2023-11-30T08:29:28.530Z,87.44
2023-11-30T08:31:56.907Z,87.32
2023-11-30T08:34:24.790Z,87.05
2023-11-30T08:36:52.563Z,87.16
2023-11-30T08:39:24.707Z,87.49
2023-11-30T08:41:54.480Z,87.83
2023-11-30T08:44:24.070Z,88.25
2023-11-30T08:46:52.131Z,88.40
2023-11-30T08:49:20.139Z,87.14
2023-11-30T08:51:48.019Z,86.60
2023-11-30T08:54:15.861Z,86.94
2023-11-30T08:56:43.703Z,86.58
2023-11-30T08:59:11.590Z,85.72
2023-11-30T09:01:39.638Z,85.30
2023-11-30T09:04:09.893Z,84.86
2023-11-30T09:06:37.996Z,83.81
2023-11-30T09:09:05.886Z,83.55
2023-11-30T09:11:35.221Z,83.47
2023-11-30T09:14:03.456Z,83.30
2023-11-30T09:16:31.347Z,81.87
2023-11-30T09:18:59.150Z,81.23
2023-11-30T09:21:28.150Z,81.83
2023-11-30T09:23:57.178Z,82.15
2023-11-30T09:26:25.099Z,81.67
2023-11-30T09:28:52.997Z,80.83
2023-11-30T09:31:21.422Z,81.81
2023-11-30T09:50:03.995Z,81.73
2023-11-30T09:52:32.973Z,81.40
2023-11-30T09:55:00.836Z,81.83
2023-11-30T09:57:28.607Z,81.43
2023-11-30T09:59:56.468Z,81.82
2023-11-30T10:02:25.368Z,82.42
2023-11-30T10:04:53.254Z,81.38
2023-11-30T10:07:22.126Z,80.96
2023-11-30T10:09:50.033Z,79.99
2023-11-30T10:12:21.232Z,79.18
2023-11-30T10:14:49.137Z,78.63
2023-11-30T10:17:17.437Z,78.48
2023-11-30T10:19:45.347Z,77.83
2023-11-30T10:22:13.727Z,76.72
2023-11-30T10:24:41.504Z,76.75
2023-11-30T10:27:11.604Z,76.66
2023-11-30T10:29:43.128Z,77.88
2023-11-30T10:32:14.287Z,77.69
2023-11-30T10:34:47.955Z,78.14
2023-11-30T10:37:21.098Z,77.52
2023-11-30T10:40:01.699Z,77.83
2023-11-30T10:42:33.559Z,77.93
2023-11-30T10:45:04.571Z,78.16
2023-11-30T10:47:33.078Z,77.90
2023-11-30T10:50:01.678Z,77.95
2023-11-30T10:52:30.076Z,77.96
2023-11-30T10:55:05.159Z,77.98
2023-11-30T10:57:33.022Z,77.46
2023-11-30T11:00:01.013Z,77.30
2023-11-30T11:02:39.510Z,77.57
2023-11-30T11:05:18.271Z,77.10
2023-11-30T11:07:50.710Z,75.70
2023-11-30T11:10:29.685Z,75.30
2023-11-30T11:13:01.250Z,73.89
2023-11-30T11:15:30.220Z,74.19
2023-11-30T11:18:07.039Z,72.90
2023-11-30T11:20:38.142Z,73.15
2023-11-30T11:23:09.817Z,71.54
2023-11-30T11:25:42.220Z,71.35
2023-11-30T11:28:11.637Z,71.98
2023-11-30T11:30:44.874Z,72.14
2023-11-30T11:33:15.833Z,72.19
2023-11-30T11:35:43.743Z,72.39
2023-11-30T11:38:11.811Z,73.07
2023-11-30T11:40:40.889Z,73.57
2023-11-30T11:43:09.438Z,74.02
2023-11-30T11:45:42.306Z,74.21
2023-11-30T11:48:12.062Z,74.43
2023-11-30T11:50:39.977Z,75.96
2023-11-30T11:53:07.884Z,76.01
2023-11-30T11:55:36.203Z,76.91
2023-11-30T11:58:03.990Z,76.84
2023-11-30T12:00:31.870Z,76.46
2023-11-30T12:03:07.527Z,76.55
2023-11-30T12:05:35.566Z,76.19
2023-11-30T12:08:04.374Z,76.57
2023-11-30T12:10:48.168Z,76.56
2023-11-30T12:13:16.300Z,76.20
2023-11-30T12:15:45.996Z,76.58
2023-11-30T12:18:14.982Z,76.73
2023-11-30T12:20:44.477Z,76.42
2023-11-30T12:23:13.853Z,76.70
2023-11-30T12:25:41.720Z,76.71
2023-11-30T12:28:09.541Z,77.23
2023-11-30T12:30:37.417Z,77.64
2023-11-30T12:33:05.243Z,77.83
2023-11-30T12:35:35.593Z,77.29
2023-11-30T12:38:03.972Z,77.47
2023-11-30T12:40:31.734Z,77.07
2023-11-30T12:42:59.969Z,76.76
2023-11-30T12:45:28.791Z,76.93
2023-11-30T12:47:57.075Z,76.83
2023-11-30T12:50:25.057Z,76.55
2023-11-30T12:52:53.071Z,76.31
2023-11-30T12:55:21.087Z,76.47
2023-11-30T12:57:48.967Z,76.13
2023-11-30T13:00:21.893Z,75.97
2023-11-30T13:02:49.971Z,76.17
2023-11-30T13:05:18.043Z,76.67
2023-11-30T13:07:46.535Z,77.00
2023-11-30T13:10:14.473Z,77.22
2023-11-30T13:12:43.093Z,77.51
2023-11-30T13:15:12.928Z,77.56
2023-11-30T13:17:41.490Z,76.17
2023-11-30T13:20:14.471Z,76.20
2023-11-30T13:22:45.327Z,76.09
2023-11-30T13:25:15.243Z,75.42
2023-11-30T13:27:47.661Z,76.12
2023-11-30T13:30:18.595Z,75.82
2023-11-30T13:32:47.748Z,75.82
2023-11-30T13:35:16.035Z,76.21
2023-11-30T13:37:44.189Z,76.34
2023-11-30T13:40:12.441Z,76.13
2023-11-30T13:42:40.448Z,75.92
2023-11-30T13:45:08.778Z,76.40
2023-11-30T13:47:36.673Z,76.32
2023-11-30T13:50:08.303Z,76.55
2023-11-30T13:52:40.315Z,76.68
2023-11-30T13:55:08.145Z,77.23
2023-11-30T13:57:37.021Z,77.47
2023-11-30T14:00:06.875Z,77.39
2023-11-30T14:02:36.860Z,77.61
2023-11-30T14:05:06.235Z,77.58
2023-11-30T14:07:34.901Z,77.39
2023-11-30T14:10:03.302Z,77.30
2023-11-30T14:12:31.162Z,77.22
2023-11-30T14:14:59.023Z,77.20
2023-11-30T14:17:26.886Z,77.45
2023-11-30T14:19:54.665Z,77.23
2023-11-30T14:22:22.807Z,77.24
2023-11-30T14:24:50.724Z,77.15
2023-11-30T14:27:18.993Z,77.34
2023-11-30T14:29:46.739Z,77.31
2023-11-30T14:32:14.483Z,77.71
2023-11-30T14:34:42.321Z,78.09
2023-11-30T14:37:10.039Z,78.43
2023-11-30T14:39:37.952Z,78.23
2023-11-30T14:42:06.921Z,78.27
2023-11-30T14:44:36.168Z,78.72
2023-11-30T14:47:11.035Z,78.91
2023-11-30T14:49:39.227Z,79.34
2023-11-30T14:52:07.616Z,79.29
2023-11-30T14:54:35.935Z,79.58
2023-11-30T14:57:07.454Z,79.99
2023-11-30T14:59:35.761Z,80.22
2023-11-30T15:02:04.391Z,80.42
2023-11-30T15:04:32.773Z,80.54
2023-11-30T15:07:01.316Z,80.53
2023-11-30T15:09:29.676Z,80.89
2023-11-30T15:11:57.655Z,81.47
2023-11-30T15:14:25.567Z,81.44
2023-11-30T15:16:55.670Z,81.51
2023-11-30T15:19:23.520Z,81.64
2023-11-30T15:21:51.536Z,81.53
2023-11-30T15:24:19.615Z,82.13
2023-11-30T15:26:48.769Z,81.82
2023-11-30T15:29:17.806Z,81.73
2023-11-30T15:31:45.681Z,82.25
2023-11-30T15:34:13.614Z,82.30
2023-11-30T15:36:43.079Z,82.28
2023-11-30T15:39:18.177Z,82.42
2023-11-30T15:41:51.258Z,82.49
2023-11-30T15:44:19.144Z,82.59
2023-11-30T15:46:47.414Z,82.48
2023-11-30T15:49:15.831Z,82.60
2023-11-30T15:51:44.093Z,82.49
2023-11-30T15:54:11.966Z,82.54
2023-11-30T15:56:39.785Z,82.53
2023-11-30T15:59:07.600Z,82.37
2023-11-30T16:01:35.473Z,82.04
2023-11-30T16:04:04.399Z,81.94
2023-11-30T16:06:34.712Z,82.15
2023-11-30T16:09:03.958Z,82.38
2023-11-30T16:11:31.845Z,82.74
2023-11-30T16:13:59.848Z,82.78
2023-11-30T16:16:28.931Z,82.93
2023-11-30T16:18:58.241Z,83.16
2023-11-30T16:21:28.541Z,83.40
2023-11-30T16:23:56.711Z,83.63
2023-11-30T16:26:27.594Z,83.57
2023-11-30T16:28:55.446Z,83.78
2023-11-30T16:31:23.270Z,83.69
2023-11-30T16:33:52.733Z,83.66
2023-11-30T16:36:21.111Z,84.35
2023-11-30T16:38:49.038Z,84.28
2023-11-30T16:41:18.268Z,83.95
2023-11-30T16:43:46.377Z,84.19
2023-11-30T16:46:14.345Z,84.29
2023-11-30T16:48:45.166Z,84.43
2023-11-30T16:51:13.317Z,84.42
2023-11-30T16:53:41.151Z,84.53
2023-11-30T16:56:09.947Z,85.07
2023-11-30T16:58:37.738Z,85.39
2023-11-30T17:01:08.466Z,85.42
2023-11-30T17:03:36.343Z,84.81
2023-11-30T17:06:04.851Z,85.10
2023-11-30T17:08:32.799Z,85.31
2023-11-30T17:11:00.837Z,84.81
2023-11-30T17:13:28.714Z,85.12
2023-11-30T17:15:57.279Z,84.95
2023-11-30T17:18:25.464Z,85.04
2023-11-30T17:20:53.384Z,85.01
2023-11-30T17:23:21.266Z,84.96
2023-11-30T17:25:49.123Z,85.25
2023-11-30T17:28:16.970Z,85.58
2023-11-30T17:30:44.860Z,85.30
2023-11-30T17:33:13.298Z,85.17
2023-11-30T17:35:41.815Z,85.13
2023-11-30T17:38:09.734Z,85.27
2023-11-30T17:40:37.573Z,85.55
2023-11-30T17:43:05.447Z,85.75
2023-11-30T17:45:33.268Z,86.15
2023-11-30T17:48:04.793Z,86.35
2023-11-30T17:50:33.149Z,86.43
2023-11-30T17:53:02.202Z,86.07
2023-11-30T17:55:31.960Z,85.81
2023-11-30T17:57:59.762Z,85.80
2023-11-30T18:00:30.230Z,85.56
2023-11-30T18:02:59.522Z,85.39
2023-11-30T18:05:27.449Z,85.10
2023-11-30T18:07:55.325Z,84.94
2023-11-30T18:10:23.163Z,85.06
2023-11-30T18:12:51.068Z,85.36
2023-11-30T18:15:18.972Z,85.81
2023-11-30T18:17:46.990Z,86.31
2023-11-30T18:20:14.900Z,86.37
2023-11-30T18:25:36.270Z,85.64
2023-11-30T18:28:04.418Z,85.57
2023-11-30T18:30:32.175Z,85.33
2023-11-30T18:33:00.016Z,85.20
2023-11-30T18:35:27.738Z,85.35
2023-11-30T18:37:55.617Z,85.42
2023-11-30T18:40:23.513Z,85.62
2023-11-30T18:42:53.577Z,86.11
2023-11-30T18:45:21.711Z,86.83
2023-11-30T18:47:49.677Z,86.52
2023-11-30T18:50:17.775Z,86.51
2023-11-30T18:52:45.571Z,86.12
2023-11-30T18:55:13.482Z,85.89
2023-11-30T18:57:41.389Z,85.57
2023-11-30T19:00:09.645Z,85.43
2023-11-30T19:02:37.459Z,85.66
2023-11-30T19:05:08.715Z,85.51
2023-11-30T19:07:37.188Z,85.49
2023-11-30T19:10:05.716Z,85.61
2023-11-30T19:12:33.674Z,86.18
2023-11-30T19:15:02.172Z,86.30
2023-11-30T19:17:30.102Z,86.28
2023-11-30T19:19:57.933Z,85.82
2023-11-30T19:22:26.862Z,85.52
2023-11-30T19:24:55.037Z,84.93
2023-11-30T19:27:23.449Z,85.28
2023-11-30T19:29:52.569Z,85.27
2023-11-30T19:32:20.776Z,85.21
2023-11-30T19:34:48.752Z,85.12
2023-11-30T19:37:16.606Z,85.06
2023-11-30T19:39:44.476Z,85.05
2023-11-30T19:42:12.349Z,85.17
2023-11-30T19:44:40.642Z,85.07
2023-11-30T19:47:09.217Z,85.13
2023-11-30T19:49:37.043Z,85.36
2023-11-30T19:52:05.113Z,85.27
2023-11-30T19:54:32.969Z,85.19
2023-11-30T19:57:00.769Z,85.48
2023-11-30T19:59:28.603Z,85.90
2023-11-30T20:01:58.609Z,86.41
2023-11-30T20:04:26.585Z,86.82
2023-11-30T20:06:54.429Z,86.62
2023-11-30T20:09:24.226Z,86.59
2023-11-30T20:11:52.081Z,86.47
2023-11-30T20:14:19.930Z,86.53
2023-11-30T20:16:47.915Z,86.16
2023-11-30T20:19:16.266Z,86.00
2023-11-30T20:21:44.288Z,85.97
2023-11-30T20:24:12.135Z,85.88
2023-11-30T20:26:41.933Z,86.20
2023-11-30T20:29:09.799Z,86.20
2023-11-30T20:31:37.817Z,86.25
2023-11-30T20:34:05.710Z,86.27
2023-11-30T20:36:33.912Z,86.25
2023-11-30T20:39:02.105Z,85.85
2023-11-30T20:41:29.839Z,86.26
2023-11-30T20:43:57.834Z,86.13
2023-11-30T20:46:25.684Z,86.04
2023-11-30T20:48:55.322Z,85.83
2023-11-30T20:51:23.178Z,85.96
2023-11-30T20:53:51.015Z,85.83
2023-11-30T20:56:19.063Z,85.60
2023-11-30T20:58:49.458Z,85.34
2023-11-30T21:01:18.664Z,85.00
2023-11-30T21:03:46.874Z,85.00
2023-11-30T21:06:14.746Z,84.67
2023-11-30T21:08:42.634Z,84.72
2023-11-30T21:11:11.605Z,84.76
2023-11-30T21:13:39.423Z,84.37
2023-11-30T21:16:07.819Z,85.03
2023-11-30T21:18:35.741Z,84.92
2023-11-30T21:21:03.757Z,85.35
2023-11-30T21:23:31.532Z,85.55
2023-11-30T21:25:59.211Z,85.97
2023-11-30T21:28:26.922Z,86.63
2023-11-30T21:30:54.754Z,86.22
2023-11-30T21:33:22.502Z,86.06
2023-11-30T21:35:50.434Z,85.58
2023-11-30T21:38:18.145Z,85.68
2023-11-30T21:40:46.543Z,85.59
2023-11-30T21:43:14.274Z,85.15
2023-11-30T21:45:42.077Z,85.34
2023-11-30T21:48:10.362Z,85.32
2023-11-30T21:50:38.230Z,85.32
2023-11-30T21:53:06.106Z,85.33
2023-11-30T21:55:33.881Z,85.21
2023-11-30T21:58:01.753Z,84.92
2023-11-30T22:00:29.702Z,84.84
2023-11-30T22:02:58.010Z,84.57
2023-11-30T22:05:30.994Z,84.46
2023-11-30T22:08:04.473Z,84.52
2023-11-30T22:10:32.254Z,84.38
2023-11-30T22:13:00.101Z,84.17
2023-11-30T22:15:27.969Z,84.23
2023-11-30T22:17:57.660Z,84.32
2023-11-30T22:20:25.592Z,84.26
2023-11-30T22:22:53.401Z,84.27
2023-11-30T22:25:21.950Z,84.38
2023-11-30T22:27:49.769Z,84.33
2023-11-30T22:30:17.592Z,84.40
2023-11-30T22:32:45.469Z,83.96
2023-11-30T22:35:13.439Z,83.85
2023-11-30T22:37:41.235Z,83.84
2023-11-30T22:40:09.581Z,83.45
2023-11-30T22:42:37.728Z,83.47
2023-11-30T22:45:06.790Z,83.57
2023-11-30T22:47:36.616Z,83.57
2023-11-30T22:50:05.088Z,83.36
2023-11-30T22:52:32.987Z,83.31
2023-11-30T22:55:01.593Z,83.52
2023-11-30T22:57:29.592Z,84.23
2023-11-30T22:59:57.418Z,84.08
2023-11-30T23:02:28.153Z,84.55
2023-11-30T23:04:58.718Z,84.85
2023-11-30T23:07:26.699Z,84.90
2023-11-30T23:09:54.442Z,84.87
2023-11-30T23:12:22.314Z,85.14
2023-11-30T23:14:50.016Z,85.28
2023-11-30T23:17:19.561Z,85.29
2023-11-30T23:19:47.842Z,85.26
2023-11-30T23:22:15.862Z,85.81
2023-11-30T23:24:43.885Z,86.05
2023-11-30T23:27:11.645Z,86.01
2023-11-30T23:29:41.298Z,85.90
2023-11-30T23:32:09.072Z,85.94
2023-11-30T23:34:36.768Z,86.05
2023-11-30T23:37:04.601Z,86.15
2023-11-30T23:39:32.510Z,86.05
2023-11-30T23:42:00.289Z,85.64
2023-11-30T23:44:27.986Z,86.32
2023-11-30T23:46:55.771Z,86.26
2023-11-30T23:49:23.531Z,86.74
2023-11-30T23:51:51.333Z,86.82
2023-11-30T23:54:19.151Z,86.79
2023-11-30T23:56:48.092Z,87.17
2023-11-30T23:59:15.931Z,87.13
